Time;durP1;ratioP1;P1;durP2;ratioP2;P2;SDS_P1;SDS_P2;PMS_P1;PMS_P2;Temp;Humidity;BMP_temperature;BMP_pressure;BME280_temperature;BME280_humidity;BME280_pressure;Samples;Min_cycle;Max_cycle;Signal;HPM_P1;HPM_P2
2023/06/09 00:01:35;;;;;;;;;;;;;;;16.28;45.28;100620.91;5055706;28;1071;-56
2023/06/09 00:04:02;;;;;;;;;;;;;;;17.55;46.18;100620.00;5055794;28;1067;-55
2023/06/09 00:06:30;;;;;;;;;;;;;;;16.77;47.12;100608.47;5055421;28;1012;-56
2023/06/09 00:08:57;;;;;;;;;;;;;;;16.57;46.82;100612.09;5055842;28;1036;-56
2023/06/09 00:11:22;;;;;;;;;;;;;;;16.43;46.31;100609.91;5055471;28;1131;-56
2023/06/09 00:13:48;;;;;;;;;;;;;;;17.42;47.08;100608.50;5055835;28;1981;-56
2023/06/09 00:16:15;;;;;;;;;;;;;;;16.72;47.66;100609.31;5055518;28;1192;-56
2023/06/09 00:18:41;;;;;;;;;;;;;;;16.53;47.02;100606.31;5055525;28;1021;-56
2023/06/09 00:21:07;;;;;;;;;;;;;;;16.52;46.55;100609.34;5055722;28;1053;-55
2023/06/09 00:23:32;;;;;;;;;;;;;;;16.40;46.17;100591.25;5055623;28;1089;-55
2023/06/09 00:25:58;;;;;;;;;;;;;;;16.89;46.35;100599.97;5055547;28;1056;-56
2023/06/09 00:28:23;;;;;;;;;;;;;;;16.89;47.24;100600.78;5055445;28;1206;-56
2023/06/09 00:30:49;;;;;;;;;;;;;;;16.57;46.99;100587.38;5018181;28;1372;-59
2023/06/09 00:33:15;;;;;;;;;;;;;;;16.48;46.38;100584.41;5049690;28;1984;-56
2023/06/09 00:35:41;;;;;;;;;;;;;;;17.86;46.98;100592.28;5055470;28;1266;-56
2023/06/09 00:38:06;;;;;;;;;;;;;;;16.94;47.88;100591.69;5055369;28;1079;-56
2023/06/09 00:40:32;;;;;;;;;;;;;;;16.79;47.26;100588.97;5055502;28;1072;-57
2023/06/09 00:42:57;;;;;;;;;;;;;;;16.53;46.64;100595.34;5057467;28;1103;-57
2023/06/09 00:45:23;;;;;;;;;;;;;;;16.54;46.30;100593.44;5059576;28;1008;-57
2023/06/09 00:47:49;;;;;;;;;;;;;;;16.39;45.94;100584.13;5040619;28;1507;-57
2023/06/09 00:50:16;;;;;;;;;;;;;;;17.60;46.85;100600.72;5041765;28;1052;-56
2023/06/09 00:52:42;;;;;;;;;;;;;;;16.86;47.55;100593.06;5021966;28;1108;-57
2023/06/09 00:55:08;;;;;;;;;;;;;;;16.63;47.01;100589.00;5040979;28;1977;-56
2023/06/09 00:57:34;;;;;;;;;;;;;;;16.49;46.53;100598.94;5059054;28;1052;-57
2023/06/09 01:00:00;;;;;;;;;;;;;;;16.98;46.73;100594.69;5041310;28;1120;-57
2023/06/09 01:02:25;;;;;;;;;;;;;;;17.06;47.49;100592.19;5058579;28;1148;-57
2023/06/09 01:04:52;;;;;;;;;;;;;;;16.69;47.38;100587.91;5059024;28;1092;-57
2023/06/09 01:07:24;;;;;;;;;;;;;;;16.61;46.65;100582.97;5058705;28;1136;-56
2023/06/09 01:10:13;;;;;;;;;;;;;;;17.28;47.31;100582.75;5058692;28;1138;-57
2023/06/09 01:12:39;;;;;;;;;;;;;;;16.90;47.71;100587.84;5050133;28;1196;-57
2023/06/09 01:15:12;;;;;;;;;;;;;;;16.74;47.22;100576.88;5047614;28;1910;-56
2023/06/09 01:17:38;;;;;;;;;;;;;;;16.58;46.58;100580.81;5057836;28;1186;-56
2023/06/09 01:20:04;;;;;;;;;;;;;;;16.52;46.19;100576.41;5058561;28;1203;-56
2023/06/09 01:22:37;;;;;;;;;;;;;;;17.32;47.55;100583.84;5040836;28;1049;-56
2023/06/09 01:25:06;;;;;;;;;;;;;;;16.74;47.42;100585.13;5058365;28;1132;-57
2023/06/09 01:27:32;;;;;;;;;;;;;;;16.65;46.95;100578.59;5045204;28;1048;-56
2023/06/09 01:29:58;;;;;;;;;;;;;;;16.47;46.22;100579.19;5040277;28;1079;-57
2023/06/09 01:32:24;;;;;;;;;;;;;;;16.48;45.96;100578.06;5027887;28;1097;-56
2023/06/09 01:34:50;;;;;;;;;;;;;;;16.41;45.56;100579.19;5023641;28;1913;-56
2023/06/09 01:37:15;;;;;;;;;;;;;;;16.38;45.20;100577.00;5040209;28;869;-56
2023/06/09 01:39:41;;;;;;;;;;;;;;;17.15;46.58;100577.88;5039813;28;1195;-57
2023/06/09 01:42:06;;;;;;;;;;;;;;;16.59;47.03;100572.28;5040546;28;1110;-57
2023/06/09 01:44:36;;;;;;;;;;;;;;;16.52;46.61;100569.00;5058438;28;1128;-57
2023/06/09 01:47:01;;;;;;;;;;;;;;;16.47;46.02;100562.72;5058149;28;1099;-56
2023/06/09 01:49:29;;;;;;;;;;;;;;;17.21;46.70;100563.84;5039597;28;2000;-56
2023/06/09 01:52:02;;;;;;;;;;;;;;;16.88;47.21;100559.84;5040576;28;1161;-57
2023/06/09 01:54:31;;;;;;;;;;;;;;;16.53;46.89;100558.84;5057588;28;1984;-57
2023/06/09 01:56:58;;;;;;;;;;;;;;;16.55;46.25;100551.16;5058246;28;1207;-57
2023/06/09 01:59:25;;;;;;;;;;;;;;;16.41;45.94;100562.72;5023235;28;1162;-56
2023/06/09 02:01:51;;;;;;;;;;;;;;;17.50;46.31;100556.78;5022968;28;923;-56
2023/06/09 02:04:16;;;;;;;;;;;;;;;16.70;47.20;100551.09;5040278;28;1140;-57
2023/06/09 02:06:42;;;;;;;;;;;;;;;16.52;46.95;100552.53;5023690;28;1336;-56
2023/06/09 02:09:09;;;;;;;;;;;;;;;16.54;46.16;100546.78;5039833;28;1049;-56
2023/06/09 02:11:34;;;;;;;;;;;;;;;17.62;46.69;100554.50;5039686;28;1227;-56
2023/06/09 02:14:00;;;;;;;;;;;;;;;16.89;47.25;100554.09;5039576;28;1906;-56
2023/06/09 02:16:26;;;;;;;;;;;;;;;16.64;47.02;100557.72;5057527;28;1140;-56
2023/06/09 02:18:51;;;;;;;;;;;;;;;16.58;46.35;100564.34;5057769;28;1140;-57
2023/06/09 02:21:17;;;;;;;;;;;;;;;17.22;46.83;100561.88;5057325;28;1035;-57
2023/06/09 02:23:43;;;;;;;;;;;;;;;16.96;47.23;100550.19;5057496;28;1016;-57
2023/06/09 02:26:08;;;;;;;;;;;;;;;16.63;46.99;100555.25;5058005;28;942;-57
2023/06/09 02:28:36;;;;;;;;;;;;;;;17.18;47.00;100552.56;5057305;28;1055;-56
2023/06/09 02:31:01;;;;;;;;;;;;;;;16.97;47.69;100555.44;5038963;28;1162;-55
2023/06/09 02:33:27;;;;;;;;;;;;;;;16.69;47.20;100548.63;5057202;28;1902;-55
2023/06/09 02:35:52;;;;;;;;;;;;;;;16.68;46.34;100547.81;5039734;28;1099;-56
2023/06/09 02:38:21;;;;;;;;;;;;;;;16.53;45.89;100545.13;5038856;28;1289;-56
2023/06/09 02:40:48;;;;;;;;;;;;;;;16.46;45.44;100559.13;5038985;28;1172;-56
2023/06/09 02:43:14;;;;;;;;;;;;;;;16.43;45.40;100563.25;5039305;28;1013;-56
2023/06/09 02:45:40;;;;;;;;;;;;;;;17.25;46.28;100561.31;5039119;28;1328;-55
2023/06/09 02:48:06;;;;;;;;;;;;;;;16.59;46.90;100566.78;5038828;28;1166;-55
2023/06/09 02:50:32;;;;;;;;;;;;;;;16.47;46.67;100557.22;5039014;28;1350;-55
2023/06/09 02:53:00;;;;;;;;;;;;;;;16.52;45.91;100574.50;5038604;28;1972;-55
2023/06/09 02:55:28;;;;;;;;;;;;;;;16.33;45.82;100573.44;5038874;28;1407;-55
2023/06/09 02:57:54;;;;;;;;;;;;;;;16.36;45.19;100573.69;5038899;28;1407;-56
2023/06/09 03:00:23;;;;;;;;;;;;;;;16.22;45.15;100573.44;5038533;28;1219;-57
2023/06/09 03:02:51;;;;;;;;;;;;;;;16.30;45.38;100580.31;5038201;28;1116;-56
2023/06/09 03:05:20;;;;;;;;;;;;;;;17.04;46.83;100572.44;5038430;28;1511;-56
2023/06/09 03:07:48;;;;;;;;;;;;;;;16.55;46.73;100565.72;5043974;28;1284;-56
2023/06/09 03:10:13;;;;;;;;;;;;;;;16.45;46.48;100573.94;5047112;28;1118;-56
2023/06/09 03:12:42;;;;;;;;;;;;;;;17.19;46.52;100584.44;5038186;28;1386;-57
2023/06/09 03:15:08;;;;;;;;;;;;;;;16.96;47.53;100574.91;5038503;28;1910;-57
2023/06/09 03:17:34;;;;;;;;;;;;;;;16.65;47.20;100583.22;5038707;28;1371;-59
2023/06/09 03:20:00;;;;;;;;;;;;;;;17.61;47.15;100580.34;5038740;28;1182;-61
2023/06/09 03:22:28;;;;;;;;;;;;;;;16.87;47.71;100580.16;5038351;28;1230;-66
2023/06/09 03:24:54;;;;;;;;;;;;;;;16.73;47.25;100589.00;5038422;28;1211;-58
2023/06/09 03:27:20;;;;;;;;;;;;;;;16.57;46.83;100595.63;5038559;28;1205;-59
2023/06/09 03:29:46;;;;;;;;;;;;;;;16.56;46.17;100604.94;5037913;28;1429;-60
2023/06/09 03:32:12;;;;;;;;;;;;;;;16.43;45.92;100596.19;5037783;28;1203;-60
2023/06/09 03:34:40;;;;;;;;;;;;;;;16.39;45.64;100595.09;5056268;28;1917;-60
2023/06/09 03:37:09;;;;;;;;;;;;;;;17.15;46.57;100588.84;5037290;28;1411;-59
2023/06/09 03:39:35;;;;;;;;;;;;;;;16.65;47.22;100592.31;5038053;28;1148;-57
2023/06/09 03:42:01;;;;;;;;;;;;;;;16.58;46.63;100586.28;5038368;28;1198;-58
2023/06/09 03:44:26;;;;;;;;;;;;;;;16.46;46.38;100594.00;5038122;28;1102;-58
2023/06/09 03:46:53;;;;;;;;;;;;;;;16.35;46.01;100588.50;5038552;28;1131;-57
2023/06/09 03:49:19;;;;;;;;;;;;;;;16.31;45.55;100590.16;5037696;28;1069;-64
2023/06/09 03:51:45;;;;;;;;;;;;;;;16.29;45.56;100584.13;5038154;28;1153;-67
2023/06/09 03:54:11;;;;;;;;;;;;;;;16.46;45.21;100589.31;5037586;28;1882;-56
2023/06/09 03:56:37;;;;;;;;;;;;;;;16.28;45.36;100585.22;5038172;28;1374;-57
2023/06/09 03:59:02;;;;;;;;;;;;;;;16.26;45.22;100584.69;5055568;28;1088;-55
2023/06/09 04:01:30;;;;;;;;;;;;;;;17.19;45.81;100589.94;5037581;28;1214;-57
2023/06/09 04:03:56;;;;;;;;;;;;;;;16.64;46.67;100590.66;5038103;28;1214;-58
2023/06/09 04:06:22;;;;;;;;;;;;;;;16.52;46.27;100598.38;5037813;28;1115;-59
2023/06/09 04:08:48;;;;;;;;;;;;;;;16.84;46.39;100599.94;5028133;28;1166;-56
2023/06/09 04:11:14;;;;;;;;;;;;;;;17.03;47.27;100602.94;5036188;28;1084;-57
2023/06/09 04:13:39;;;;;;;;;;;;;;;16.67;47.01;100601.06;5039060;28;1910;-57
2023/06/09 04:16:06;;;;;;;;;;;;;;;16.57;46.61;100601.09;5038498;28;1251;-55
2023/06/09 04:18:31;;;;;;;;;;;;;;;16.51;46.09;100603.03;5059890;28;1148;-60
2023/06/09 04:20:58;;;;;;;;;;;;;;;16.47;45.96;100595.66;5041827;28;1235;-56
2023/06/09 04:23:27;;;;;;;;;;;;;;;17.42;46.54;100605.75;5041449;28;1155;-58
2023/06/09 04:25:53;;;;;;;;;;;;;;;16.90;47.35;100609.81;5041363;28;1393;-57
2023/06/09 04:28:20;;;;;;;;;;;;;;;16.66;46.81;100610.44;5028482;28;1577;-56
2023/06/09 04:30:50;;;;;;;;;;;;;;;16.57;46.52;100609.34;5041700;28;1191;-56
2023/06/09 04:33:16;;;;;;;;;;;;;;;16.55;45.99;100614.28;5038740;28;1984;-58
2023/06/09 04:35:43;;;;;;;;;;;;;;;16.42;46.08;100613.78;5021931;28;1160;-56
2023/06/09 04:38:12;;;;;;;;;;;;;;;16.47;45.53;100612.13;5028992;28;1305;-51
2023/06/09 04:40:39;;;;;;;;;;;;;;;17.40;46.34;100620.88;5041796;28;1382;-55
2023/06/09 04:43:08;;;;;;;;;;;;;;;16.76;47.30;100613.16;5041511;28;1347;-56
2023/06/09 04:45:34;;;;;;;;;;;;;;;16.69;46.55;100625.50;5058857;28;1075;-55
2023/06/09 04:48:08;;;;;;;;;;;;;;;16.56;46.31;100618.66;5041469;28;1261;-54
2023/06/09 04:50:35;;;;;;;;;;;;;;;16.48;46.13;100630.22;5059042;28;1067;-52
2023/06/09 04:53:06;;;;;;;;;;;;;;;16.45;45.83;100625.28;5041483;28;1971;-47
2023/06/09 04:55:35;;;;;;;;;;;;;;;16.45;45.44;100619.78;5041162;28;1159;-56
2023/06/09 04:58:03;;;;;;;;;;;;;;;17.84;43.98;100627.50;5041423;28;1164;-50
2023/06/09 05:00:30;;;;;;;;;;;;;;;17.27;45.56;100636.06;5058791;28;1207;-59
2023/06/09 05:02:57;;;;;;;;;;;;;;;17.07;46.52;100637.78;5033231;28;1307;-55
2023/06/09 05:05:24;;;;;;;;;;;;;;;16.86;47.16;100637.00;5034955;28;1289;-57
2023/06/09 05:07:50;;;;;;;;;;;;;;;16.79;47.89;100632.91;5040968;28;1112;-54
2023/06/09 05:10:17;;;;;;;;;;;;;;;16.68;48.09;100632.13;5040760;28;1413;-52
2023/06/09 05:12:43;;;;;;;;;;;;;;;16.70;48.32;100633.47;5040862;28;1213;-55
2023/06/09 05:15:09;;;;;;;;;;;;;;;16.56;48.93;100640.63;5038455;28;1991;-51
2023/06/09 05:17:41;;;;;;;;;;;;;;;16.55;49.02;100630.75;5040559;28;1264;-54
2023/06/09 05:20:08;;;;;;;;;;;;;;;16.47;49.24;100629.41;5040648;28;1238;-55
2023/06/09 05:22:35;;;;;;;;;;;;;;;16.42;49.61;100634.88;5040967;28;1166;-56
2023/06/09 05:25:08;;;;;;;;;;;;;;;16.39;49.78;100632.69;5040657;28;1281;-56
2023/06/09 05:27:33;;;;;;;;;;;;;;;16.32;50.02;100630.22;5031607;28;927;-56
2023/06/09 05:29:59;;;;;;;;;;;;;;;16.25;50.32;100621.44;5034923;28;1131;-56
2023/06/09 05:32:26;;;;;;;;;;;;;;;16.23;50.59;100621.72;5040536;28;1280;-57
2023/06/09 05:34:52;;;;;;;;;;;;;;;16.19;50.86;100625.31;5040286;28;1975;-56
2023/06/09 05:37:18;;;;;;;;;;;;;;;16.13;51.14;100623.66;5040290;28;1253;-56
2023/06/09 05:39:44;;;;;;;;;;;;;;;16.16;50.79;100612.13;5027015;28;1099;-58
2023/06/09 05:42:10;;;;;;;;;;;;;;;16.05;51.10;100617.63;5057781;28;1148;-59
2023/06/09 05:44:36;;;;;;;;;;;;;;;16.04;51.46;100621.44;5058114;28;1119;-55
2023/06/09 05:47:01;;;;;;;;;;;;;;;16.03;51.36;100614.34;5058021;28;1131;-53
2023/06/09 05:49:27;;;;;;;;;;;;;;;15.96;51.62;100613.75;5058260;28;1123;-56
2023/06/09 05:51:52;;;;;;;;;;;;;;;15.97;51.86;100626.38;5049480;28;995;-55
2023/06/09 05:54:18;;;;;;;;;;;;;;;15.89;51.90;100619.53;5039738;28;1914;-54
2023/06/09 05:56:44;;;;;;;;;;;;;;;15.87;52.11;100618.97;5057436;28;1410;-55
2023/06/09 05:59:10;;;;;;;;;;;;;;;15.88;52.01;100622.56;5057623;28;1095;-53
2023/06/09 06:01:36;;;;;;;;;;;;;;;15.84;52.04;100616.78;5057883;28;1111;-56
2023/06/09 06:04:02;;;;;;;;;;;;;;;15.84;52.37;100616.78;5026544;28;849;-55
2023/06/09 06:06:29;;;;;;;;;;;;;;;15.83;52.29;100615.13;5057715;28;1155;-57
2023/06/09 06:08:55;;;;;;;;;;;;;;;15.84;52.38;100621.44;5057343;28;1112;-56
2023/06/09 06:11:21;;;;;;;;;;;;;;;15.77;52.64;100612.59;5057435;28;1297;-56
2023/06/09 06:13:46;;;;;;;;;;;;;;;15.79;52.44;100618.66;5057383;28;1984;-56
2023/06/09 06:16:12;;;;;;;;;;;;;;;15.74;52.58;100627.72;5047610;28;863;-55
2023/06/09 06:18:37;;;;;;;;;;;;;;;16.75;50.71;100622.47;5037944;28;1258;-55
2023/06/09 06:21:03;;;;;;;;;;;;;;;17.17;49.76;100625.13;5044291;28;1020;-54
2023/06/09 06:23:28;;;;;;;;;;;;;;;16.62;51.84;100625.81;5057673;28;1179;-56
2023/06/09 06:25:54;;;;;;;;;;;;;;;16.46;52.85;100633.22;5057362;28;1056;-57
2023/06/09 06:28:20;;;;;;;;;;;;;;;16.30;53.24;100617.88;5043359;28;918;-55
2023/06/09 06:30:45;;;;;;;;;;;;;;;16.20;53.03;100613.22;5056836;28;929;-60
2023/06/09 06:33:11;;;;;;;;;;;;;;;16.16;53.30;100607.47;5057003;28;1972;-59
2023/06/09 06:35:37;;;;;;;;;;;;;;;16.08;53.55;100606.09;5056591;28;1134;-58
2023/06/09 06:38:02;;;;;;;;;;;;;;;16.06;53.40;100601.97;5057085;28;1131;-59
2023/06/09 06:40:28;;;;;;;;;;;;;;;16.01;53.40;100602.81;5049671;28;1143;-62
2023/06/09 06:42:54;;;;;;;;;;;;;;;15.95;53.58;100601.16;5032351;28;1041;-62
2023/06/09 06:45:26;;;;;;;;;;;;;;;15.93;53.68;100608.00;5057113;28;1013;-59
2023/06/09 06:47:55;;;;;;;;;;;;;;;15.85;53.72;100601.13;5044049;28;1235;-61
2023/06/09 06:50:20;;;;;;;;;;;;;;;15.91;53.79;100605.56;5056061;28;1094;-58
2023/06/09 06:52:48;;;;;;;;;;;;;;;15.87;53.58;100605.25;5056933;28;950;-57
2023/06/09 06:55:13;;;;;;;;;;;;;;;15.83;54.01;100606.09;5057167;28;1975;-62
2023/06/09 06:57:39;;;;;;;;;;;;;;;15.81;53.68;100602.78;5056704;28;1104;-58
2023/06/09 07:00:22;;;;;;;;;;;;;;;15.76;53.92;100597.28;5056942;28;1143;-59
2023/06/09 07:02:48;;;;;;;;;;;;;;;15.78;54.06;100603.28;5041238;28;1176;-58
2023/06/09 07:05:15;;;;;;;;;;;;;;;15.81;53.83;100605.50;5048146;28;1056;-62
2023/06/09 07:07:40;;;;;;;;;;;;;;;17.31;51.05;100597.88;5056638;28;1119;-60
2023/06/09 07:10:09;;;;;;;;;;;;;;;16.66;52.61;100604.09;5056543;28;1092;-55
2023/06/09 07:12:34;;;;;;;;;;;;;;;16.31;53.74;100603.88;5056182;28;1130;-58
2023/06/09 07:15:00;;;;;;;;;;;;;;;16.20;53.89;100596.75;5056230;28;1898;-59
2023/06/09 07:17:26;;;;;;;;;;;;;;;16.11;54.18;100598.41;5041470;28;1135;-60
2023/06/09 07:19:52;;;;;;;;;;;;;;;16.05;54.07;100590.19;5049548;28;1272;-59
2023/06/09 07:22:17;;;;;;;;;;;;;;;16.05;54.21;100594.84;5050798;28;1131;-60
2023/06/09 07:24:43;;;;;;;;;;;;;;;16.00;54.24;100590.19;5047548;28;1226;-60
2023/06/09 07:27:08;;;;;;;;;;;;;;;16.01;54.03;100591.81;5055713;28;1131;-55
2023/06/09 07:29:37;;;;;;;;;;;;;;;15.91;54.33;100595.38;5056511;28;1052;-58
2023/06/09 07:32:03;;;;;;;;;;;;;;;15.83;54.41;100593.19;5055936;28;1072;-56
2023/06/09 07:34:29;;;;;;;;;;;;;;;15.84;54.42;100592.09;5055890;28;1971;-63
2023/06/09 07:36:54;;;;;;;;;;;;;;;15.83;54.30;100581.41;5055848;28;1087;-61
2023/06/09 07:39:20;;;;;;;;;;;;;;;15.78;54.41;100584.09;5055687;28;1131;-60
2023/06/09 07:41:46;;;;;;;;;;;;;;;15.72;54.59;100581.38;5052671;28;1107;-58
2023/06/09 07:44:11;;;;;;;;;;;;;;;15.91;54.11;100578.13;5055838;28;1035;-56
2023/06/09 07:46:37;;;;;;;;;;;;;;;17.42;51.39;100563.72;5056473;28;1067;-62
2023/06/09 07:49:02;;;;;;;;;;;;;;;16.83;52.74;100574.41;5055806;28;1135;-56
2023/06/09 07:51:29;;;;;;;;;;;;;;;16.42;54.01;100572.59;5054577;28;1120;-59
2023/06/09 07:53:54;;;;;;;;;;;;;;;16.25;54.26;100575.63;5036023;28;1973;-58
2023/06/09 07:56:20;;;;;;;;;;;;;;;16.18;54.57;100580.56;5050133;28;1039;-61
2023/06/09 07:58:46;;;;;;;;;;;;;;;16.11;54.35;100571.00;5055919;28;1123;-56
2023/06/09 08:01:11;;;;;;;;;;;;;;;16.10;54.34;100567.41;5055820;28;1305;-56
2023/06/09 08:03:37;;;;;;;;;;;;;;;16.09;54.29;100574.00;5055157;28;1215;-57
2023/06/09 08:06:03;;;;;;;;;;;;;;;16.03;54.57;100577.84;5056092;28;1298;-60
2023/06/09 08:08:31;;;;;;;;;;;;;;;16.05;54.39;100567.44;5055875;28;1230;-60
2023/06/09 08:11:00;;;;;;;;;;;;;;;15.92;54.44;100574.25;5056279;28;1067;-60
2023/06/09 08:13:25;;;;;;;;;;;;;;;15.90;54.43;100577.28;5037957;28;1906;-60
2023/06/09 08:15:51;;;;;;;;;;;;;;;15.88;54.76;100578.69;5055423;28;1151;-57
2023/06/09 08:18:16;;;;;;;;;;;;;;;15.84;54.51;100577.56;5037454;28;1139;-58
2023/06/09 08:20:42;;;;;;;;;;;;;;;15.79;54.90;100580.28;5040163;28;1156;-61
2023/06/09 08:23:08;;;;;;;;;;;;;;;15.82;54.42;100575.13;5055769;28;1489;-59
2023/06/09 08:25:37;;;;;;;;;;;;;;;15.80;54.75;100576.47;5052321;28;1045;-56
2023/06/09 08:28:02;;;;;;;;;;;;;;;16.23;54.17;100579.78;5046467;28;1127;-57
2023/06/09 08:30:28;;;;;;;;;;;;;;;17.43;52.20;100573.59;5055355;28;1076;-59
2023/06/09 08:32:53;;;;;;;;;;;;;;;16.69;54.15;100579.69;5055440;28;1020;-56
2023/06/09 08:35:20;;;;;;;;;;;;;;;16.39;54.87;100578.63;5042305;28;1910;-56
2023/06/09 08:37:47;;;;;;;;;;;;;;;16.25;54.97;100572.88;5055719;28;1119;-55
2023/06/09 08:40:12;;;;;;;;;;;;;;;16.12;55.22;100572.63;5037384;28;1208;-55
2023/06/09 08:42:39;;;;;;;;;;;;;;;16.10;55.18;100567.41;5055598;28;1123;-62
2023/06/09 08:45:05;;;;;;;;;;;;;;;16.11;55.05;100563.56;5055621;28;1095;-60
2023/06/09 08:47:32;;;;;;;;;;;;;;;16.03;54.88;100564.97;5055211;28;1040;-60
2023/06/09 08:49:59;;;;;;;;;;;;;;;15.99;54.97;100558.38;5055172;28;1107;-60
2023/06/09 08:52:25;;;;;;;;;;;;;;;15.99;54.89;100563.88;5053686;28;1266;-58
2023/06/09 08:54:51;;;;;;;;;;;;;;;15.97;54.87;100559.75;5041860;28;1903;-54
2023/06/09 08:57:18;;;;;;;;;;;;;;;15.87;54.99;100555.09;5055364;28;1031;-54
2023/06/09 08:59:44;;;;;;;;;;;;;;;15.90;55.07;100557.28;5037916;28;1071;-52
2023/06/09 09:02:10;;;;;;;;;;;;;;;15.88;54.94;100551.25;5054883;28;1127;-55
2023/06/09 09:04:38;;;;;;;;;;;;;;;15.82;54.92;100549.59;5052481;28;929;-57
2023/06/09 09:07:05;;;;;;;;;;;;;;;15.82;55.02;100553.19;5045246;28;1178;-55
2023/06/09 09:09:30;;;;;;;;;;;;;;;15.83;54.83;100545.75;5059114;28;1238;-58
2023/06/09 09:11:59;;;;;;;;;;;;;;;16.59;54.07;100550.31;5058872;28;925;-56
2023/06/09 09:14:25;;;;;;;;;;;;;;;17.31;53.10;100549.22;5058236;28;2006;-54
2023/06/09 09:16:50;;;;;;;;;;;;;;;16.56;55.00;100541.81;5057240;28;1059;-57
2023/06/09 09:19:26;;;;;;;;;;;;;;;16.39;55.15;100540.19;5045552;28;1128;-56
2023/06/09 09:21:55;;;;;;;;;;;;;;;16.30;55.10;100546.53;5058727;28;1147;-65
2023/06/09 09:24:21;;;;;;;;;;;;;;;16.17;55.34;100542.44;5026288;28;1273;-59
2023/06/09 09:26:46;;;;;;;;;;;;;;;16.15;55.16;100542.72;5058260;28;1202;-62
2023/06/09 09:29:12;;;;;;;;;;;;;;;16.11;55.11;100538.06;5047041;28;908;-55
2023/06/09 09:31:41;;;;;;;;;;;;;;;16.07;55.37;100527.66;5055769;28;972;-56
2023/06/09 09:34:13;;;;;;;;;;;;;;;16.05;55.03;100527.09;5058056;28;1922;-56
2023/06/09 09:36:45;;;;;;;;;;;;;;;15.99;55.13;100525.47;5058176;28;1211;-55
2023/06/09 09:39:11;;;;;;;;;;;;;;;15.94;55.19;100519.97;5058843;28;1199;-57
2023/06/09 09:41:36;;;;;;;;;;;;;;;15.97;55.21;100527.66;5051678;28;1044;-56
2023/06/09 09:44:02;;;;;;;;;;;;;;;15.95;54.95;100518.91;5051573;28;1112;-55
2023/06/09 09:46:34;;;;;;;;;;;;;;;15.87;55.17;100513.97;5058633;28;1110;-53
2023/06/09 09:49:00;;;;;;;;;;;;;;;15.85;55.31;100513.41;5057825;28;1016;-53
2023/06/09 09:51:26;;;;;;;;;;;;;;;15.86;55.13;100515.06;5058380;28;1055;-56
2023/06/09 09:53:51;;;;;;;;;;;;;;;15.82;55.35;100513.94;5043934;28;1975;-56
2023/06/09 09:56:18;;;;;;;;;;;;;;;16.50;54.55;100507.25;5058145;28;1134;-55
2023/06/09 09:58:44;;;;;;;;;;;;;;;17.44;52.95;100504.56;5057781;28;1096;-55
2023/06/09 10:01:10;;;;;;;;;;;;;;;16.65;55.01;100498.97;5040174;28;1122;-56
2023/06/09 10:03:41;;;;;;;;;;;;;;;16.50;55.18;100499.03;5057643;28;1095;-60
2023/06/09 10:06:09;;;;;;;;;;;;;;;16.35;55.75;100495.22;5049509;28;889;-48
2023/06/09 10:08:35;;;;;;;;;;;;;;;16.28;55.61;100493.88;5039452;28;1151;-50
2023/06/09 10:11:00;;;;;;;;;;;;;;;16.21;55.50;100486.75;5057863;28;1012;-53
2023/06/09 10:13:26;;;;;;;;;;;;;;;16.17;55.63;100482.09;5057569;28;1906;-54
2023/06/09 10:15:55;;;;;;;;;;;;;;;16.11;55.45;100477.72;5049024;28;1071;-53
2023/06/09 10:18:21;;;;;;;;;;;;;;;16.08;55.61;100479.09;5057113;28;1475;-55
2023/06/09 10:20:48;;;;;;;;;;;;;;;16.06;55.58;100482.13;5057604;28;1056;-55
2023/06/09 10:23:14;;;;;;;;;;;;;;;16.00;55.40;100477.72;5057987;28;1044;-51
2023/06/09 10:25:39;;;;;;;;;;;;;;;16.01;55.47;100478.56;5057436;28;1040;-47
2023/06/09 10:28:05;;;;;;;;;;;;;;;16.04;55.36;100472.53;5039447;28;1111;-51
2023/06/09 10:30:30;;;;;;;;;;;;;;;15.93;55.42;100471.72;5054055;28;1199;-55
2023/06/09 10:33:04;;;;;;;;;;;;;;;15.89;55.28;100465.13;5030255;28;1060;-51
2023/06/09 10:35:31;;;;;;;;;;;;;;;15.98;55.36;100470.91;5056934;28;1906;-50
2023/06/09 10:37:58;;;;;;;;;;;;;;;15.91;55.29;100468.44;5039753;28;1230;-48
2023/06/09 10:40:25;;;;;;;;;;;;;;;15.90;55.15;100461.31;5056831;28;1063;-51
2023/06/09 10:42:55;;;;;;;;;;;;;;;15.88;55.07;100453.38;5045669;28;1163;-46
2023/06/09 10:45:21;;;;;;;;;;;;;;;15.87;55.06;100450.91;5037090;28;1148;-54
2023/06/09 10:47:47;;;;;;;;;;;;;;;15.90;54.99;100453.09;5049423;28;1092;-54
2023/06/09 10:50:22;;;;;;;;;;;;;;;15.88;55.44;100452.56;5056973;28;1234;-53
2023/06/09 10:52:54;;;;;;;;;;;;;;;17.37;53.39;100446.38;5056510;28;1052;-55
2023/06/09 10:55:22;;;;;;;;;;;;;;;16.82;55.02;100442.88;5037596;28;1971;-49
2023/06/09 10:57:49;;;;;;;;;;;;;;;16.54;55.51;100453.44;5036847;28;1183;-52
2023/06/09 11:00:16;;;;;;;;;;;;;;;16.38;55.75;100455.41;5054322;28;1017;-53
2023/06/09 11:02:42;;;;;;;;;;;;;;;16.29;55.81;100438.72;5043348;28;1174;-48
2023/06/09 11:05:08;;;;;;;;;;;;;;;16.24;55.94;100452.44;5043224;28;1140;-50
2023/06/09 11:07:41;;;;;;;;;;;;;;;16.19;55.64;100447.00;5042866;28;1191;-55
2023/06/09 11:10:06;;;;;;;;;;;;;;;16.16;55.60;100447.53;5051498;28;1101;-54
2023/06/09 11:12:49;;;;;;;;;;;;;;;16.15;55.83;100448.66;5056611;28;1087;-56
2023/06/09 11:15:15;;;;;;;;;;;;;;;16.07;55.98;100450.88;5056168;28;1977;-46
2023/06/09 11:17:44;;;;;;;;;;;;;;;16.09;55.53;100453.31;5050394;28;1072;-53
2023/06/09 11:20:10;;;;;;;;;;;;;;;16.08;55.51;100441.50;5036869;28;1072;-49
2023/06/09 11:22:41;;;;;;;;;;;;;;;16.06;55.58;100438.25;5055389;28;1020;-48
2023/06/09 11:25:08;;;;;;;;;;;;;;;16.02;55.76;100437.16;5056369;28;1199;-51
2023/06/09 11:27:33;;;;;;;;;;;;;;;15.98;55.72;100446.22;5052450;28;1352;-49
2023/06/09 11:30:06;;;;;;;;;;;;;;;15.94;55.81;100440.47;5048813;28;1762;-55
2023/06/09 11:32:50;;;;;;;;;;;;;;;15.91;55.98;100446.50;5051979;28;1264;-53
2023/06/09 11:35:59;;;;;;;;;;;;;;;15.93;55.75;100441.56;5054597;28;1918;-53
2023/06/09 11:38:19;;;;;;;;;;;;;;;16.00;55.86;100447.56;5045280;28;1732;-55
2023/06/09 11:40:51;;;;;;;;;;;;;;;15.91;55.93;100446.50;5055414;28;1175;-55
2023/06/09 11:43:19;;;;;;;;;;;;;;;15.89;55.85;100445.94;5044039;28;1091;-56
2023/06/09 11:45:45;;;;;;;;;;;;;;;16.87;54.90;100440.94;5054917;28;1142;-56
2023/06/09 11:48:10;;;;;;;;;;;;;;;17.07;54.97;100448.25;5056341;28;1215;-56
2023/06/09 11:50:43;;;;;;;;;;;;;;;16.64;56.33;100444.34;5055443;28;1158;-54
2023/06/09 11:53:09;;;;;;;;;;;;;;;16.38;56.59;100445.28;5055991;28;1267;-52
2023/06/09 11:55:35;;;;;;;;;;;;;;;16.33;56.21;100431.56;5055662;28;1914;-50
2023/06/09 11:58:01;;;;;;;;;;;;;;;16.28;56.09;100434.31;5055512;28;1231;-51
2023/06/09 12:00:27;;;;;;;;;;;;;;;16.21;56.32;100434.63;5038129;28;1227;-52
2023/06/09 12:02:53;;;;;;;;;;;;;;;16.14;56.28;100425.06;5055876;28;1436;-56
2023/06/09 12:05:19;;;;;;;;;;;;;;;16.12;56.10;100439.06;5055595;28;1130;-58
2023/06/09 12:07:45;;;;;;;;;;;;;;;16.12;56.00;100436.31;5047432;28;1065;-54
2023/06/09 12:10:12;;;;;;;;;;;;;;;16.05;56.10;100439.34;5055744;28;1210;-57
2023/06/09 12:12:44;;;;;;;;;;;;;;;16.04;55.88;100437.69;5056373;28;1159;-55
2023/06/09 12:15:10;;;;;;;;;;;;;;;15.98;56.01;100438.81;5048302;28;1967;-55
2023/06/09 12:17:36;;;;;;;;;;;;;;;15.96;56.21;100446.47;5050606;28;1254;-51
2023/06/09 12:20:20;;;;;;;;;;;;;;;15.95;55.87;100425.66;5045695;28;1384;-50
2023/06/09 12:22:46;;;;;;;;;;;;;;;15.90;56.02;100428.41;5054819;28;1092;-55
2023/06/09 12:25:20;;;;;;;;;;;;;;;15.91;56.07;100430.06;5055677;28;1321;-50
2023/06/09 12:27:46;;;;;;;;;;;;;;;15.87;55.95;100424.28;5042844;28;1125;-52
2023/06/09 12:30:31;;;;;;;;;;;;;;;15.85;56.29;100431.16;5054356;28;1159;-52
2023/06/09 12:32:56;;;;;;;;;;;;;;;17.18;55.79;100423.44;5035436;28;1127;-48
2023/06/09 12:35:22;;;;;;;;;;;;;;;16.95;56.41;100425.78;5051833;28;1983;-48
2023/06/09 12:37:47;;;;;;;;;;;;;;;16.52;57.09;100425.44;5055803;28;1183;-45
2023/06/09 12:40:13;;;;;;;;;;;;;;;16.40;56.97;100440.31;5059679;28;1146;-47
2023/06/09 12:42:45;;;;;;;;;;;;;;;16.26;57.24;100428.31;5049576;28;905;-52
2023/06/09 12:45:13;;;;;;;;;;;;;;;16.20;56.84;100426.66;5040742;28;1171;-55
2023/06/09 12:47:46;;;;;;;;;;;;;;;16.21;56.73;100436.53;5059272;28;1167;-49